Time;durP1;ratioP1;P1;durP2;ratioP2;P2;SDS_P1;SDS_P2;PMS_P1;PMS_P2;Temp;Humidity;BMP_temperature;BMP_pressure;BME280_temperature;BME280_humidity;BME280_pressure;Samples;Min_cycle;Max_cycle;Signal;HPM_P1;HPM_P2
2024/02/22 08:13:22;;;;;;;0.73;0.50;;;22.40;47.10;;;;;;5092917;27;20248;-63
2024/02/22 08:15:50;;;;;;;3.85;0.68;;;22.50;47.30;;;;;;5081963;28;20194;-64
2024/02/22 08:18:16;;;;;;;1.15;0.70;;;22.50;47.30;;;;;;5077017;28;20732;-65
2024/02/22 08:20:44;;;;;;;0.90;0.57;;;22.60;47.30;;;;;;5079747;28;20210;-65
2024/02/22 08:23:14;;;;;;;2.45;0.40;;;22.70;47.30;;;;;;5083579;28;20305;-66
2024/02/22 08:25:41;;;;;;;2.72;0.32;;;22.80;47.20;;;;;;5086016;28;20220;-67
2024/02/22 08:28:08;;;;;;;3.45;0.73;;;22.80;47.10;;;;;;5080896;28;20217;-67
2024/02/22 08:30:40;;;;;;;3.72;0.50;;;22.90;47.10;;;;;;5082984;28;20568;-66
2024/02/22 08:33:07;;;;;;;2.13;0.60;;;22.90;47.20;;;;;;5082563;28;20295;-66
2024/02/22 08:35:34;;;;;;;2.15;0.70;;;23.00;47.40;;;;;;5084705;28;20198;-67
2024/02/22 08:38:01;;;;;;;0.90;0.60;;;23.00;47.50;;;;;;5090304;28;20224;-67
2024/02/22 08:40:28;;;;;;;1.58;0.60;;;23.10;47.40;;;;;;5087235;28;20408;-67
2024/02/22 08:43:00;;;;;;;3.60;0.47;;;23.10;47.30;;;;;;5085701;28;20229;-66
2024/02/22 08:45:27;;;;;;;2.67;0.60;;;23.10;47.40;;;;;;5090110;28;20198;-67
2024/02/22 08:47:55;;;;;;;1.30;0.40;;;23.20;47.50;;;;;;5089321;28;20228;-66
2024/02/22 08:50:23;;;;;;;0.70;0.50;;;23.20;47.50;;;;;;5089705;28;20190;-66
2024/02/22 08:52:51;;;;;;;1.13;0.50;;;23.30;47.50;;;;;;5089267;28;20224;-68
2024/02/22 08:55:18;;;;;;;1.17;0.60;;;23.30;47.60;;;;;;5088420;28;20212;-66
2024/02/22 08:57:45;;;;;;;4.80;0.60;;;23.30;47.40;;;;;;5083585;28;20701;-67
2024/02/22 09:00:14;;;;;;;1.30;0.63;;;23.40;47.50;;;;;;5080735;28;20444;-66
2024/02/22 09:02:41;;;;;;;0.50;0.38;;;23.40;47.40;;;;;;5085111;28;20233;-67
2024/02/22 09:05:10;;;;;;;1.40;0.50;;;23.40;47.50;;;;;;5088705;28;20201;-66
2024/02/22 09:07:37;;;;;;;1.67;0.60;;;23.40;47.30;;;;;;5088037;28;20245;-67
2024/02/22 09:10:06;;;;;;;2.10;0.50;;;23.50;47.50;;;;;;5088369;28;20205;-67
2024/02/22 09:12:33;;;;;;;2.92;0.45;;;23.50;47.30;;;;;;5087038;28;20245;-67
2024/02/22 09:15:01;;;;;;;4.57;0.60;;;23.50;47.30;;;;;;5117933;27;20228;-66
2024/02/22 09:17:28;;;;;;;1.80;0.52;;;23.50;47.30;;;;;;5120736;27;20215;-67
2024/02/22 09:19:55;;;;;;;6.65;0.60;;;23.50;47.30;;;;;;5125807;27;20272;-67
2024/02/22 09:22:23;;;;;;;0.93;0.50;;;23.50;47.20;;;;;;5116076;27;20234;-67
2024/02/22 09:24:50;;;;;;;1.67;0.40;;;23.50;47.20;;;;;;5120638;27;20191;-67
2024/02/22 09:27:17;;;;;;;0.98;0.77;;;23.50;47.10;;;;;;5121138;27;20189;-65
2024/02/22 09:29:47;;;;;;;1.33;0.60;;;23.50;47.10;;;;;;5116621;27;20193;-67
2024/02/22 09:32:14;;;;;;;1.35;0.63;;;23.50;47.10;;;;;;5118533;27;20193;-66
2024/02/22 09:34:42;;;;;;;0.95;0.50;;;23.60;47.20;;;;;;5117499;27;20192;-66
2024/02/22 09:37:09;;;;;;;1.30;0.55;;;23.60;47.10;;;;;;5122470;27;20622;-67
2024/02/22 09:39:38;;;;;;;1.33;0.40;;;23.60;47.00;;;;;;5118224;27;20239;-67
2024/02/22 09:42:05;;;;;;;3.78;0.50;;;23.60;47.10;;;;;;5128392;27;20212;-68
2024/02/22 09:44:33;;;;;;;1.00;0.55;;;23.50;47.10;;;;;;5126027;27;20796;-68
2024/02/22 09:47:01;;;;;;;1.83;0.45;;;23.50;47.20;;;;;;5122349;27;20228;-68
2024/02/22 09:49:28;;;;;;;1.30;0.63;;;23.40;47.30;;;;;;5129521;27;20220;-68
2024/02/22 09:51:56;;;;;;;3.80;0.52;;;23.40;47.40;;;;;;5129485;27;20193;-67
2024/02/22 09:54:25;;;;;;;2.70;0.63;;;23.50;47.50;;;;;;5124167;28;20227;-67
2024/02/22 09:56:55;;;;;;;4.05;0.55;;;23.50;47.50;;;;;;5128394;27;20370;-67
2024/02/22 09:59:23;;;;;;;6.80;0.60;;;23.50;47.50;;;;;;5107565;28;20217;-67
2024/02/22 10:01:51;;;;;;;0.68;0.50;;;23.50;47.50;;;;;;5122855;28;20221;-66
2024/02/22 10:04:19;;;;;;;2.42;0.60;;;23.40;47.40;;;;;;5122384;28;20327;-67
2024/02/22 10:06:47;;;;;;;2.47;0.60;;;23.40;47.40;;;;;;5114463;28;20208;-67
2024/02/22 10:09:15;;;;;;;5.60;0.77;;;23.40;47.30;;;;;;5118168;28;20235;-67
2024/02/22 10:11:45;;;;;;;3.13;0.50;;;23.30;47.20;;;;;;5129000;28;20511;-67
2024/02/22 10:14:14;;;;;;;2.80;0.80;;;23.30;47.20;;;;;;5123831;28;20239;-67
2024/02/22 10:16:41;;;;;;;2.53;0.43;;;23.30;47.20;;;;;;5127662;28;20196;-66
2024/02/22 10:19:12;;;;;;;2.92;0.50;;;23.30;47.20;;;;;;5122713;28;20344;-66
2024/02/22 10:21:39;;;;;;;1.55;0.50;;;23.30;47.20;;;;;;5126961;28;20291;-67
2024/02/22 10:24:08;;;;;;;1.50;0.60;;;23.30;47.10;;;;;;5121156;28;20299;-67
2024/02/22 10:26:35;;;;;;;2.25;0.50;;;23.30;47.20;;;;;;5126010;28;20264;-67
2024/02/22 10:29:07;;;;;;;1.85;0.60;;;23.30;47.20;;;;;;5109508;28;20224;-67
2024/02/22 10:31:44;;;;;;;1.40;0.70;;;23.30;47.20;;;;;;5124989;28;20385;-67
2024/02/22 10:34:12;;;;;;;1.58;0.70;;;23.20;47.10;;;;;;5125429;28;20220;-67
2024/02/22 10:36:42;;;;;;;0.63;0.40;;;23.30;47.80;;;;;;5129284;28;20192;-67
2024/02/22 10:39:11;;;;;;;1.52;0.70;;;23.20;47.10;;;;;;5128139;28;20728;-67
2024/02/22 10:41:38;;;;;;;1.85;0.57;;;23.30;47.90;;;;;;5127617;28;20228;-67
2024/02/22 10:44:06;;;;;;;1.95;0.63;;;23.20;47.20;;;;;;5129505;28;20705;-67
2024/02/22 10:46:38;;;;;;;1.23;0.70;;;23.20;47.20;;;;;;5130408;28;20715;-67
2024/02/22 10:49:07;;;;;;;5.93;0.65;;;23.30;47.20;;;;;;5129742;28;20788;-67
2024/02/22 10:51:35;;;;;;;0.80;0.50;;;23.20;47.20;;;;;;5129462;28;20626;-67
2024/02/22 10:54:04;;;;;;;2.67;0.65;;;23.20;47.20;;;;;;5127385;28;20216;-67
2024/02/22 10:56:34;;;;;;;1.02;0.60;;;23.20;47.20;;;;;;5129701;28;20315;-67
2024/02/22 10:59:04;;;;;;;0.85;0.45;;;23.20;47.20;;;;;;5123593;28;20242;-67
2024/02/22 11:01:32;;;;;;;1.25;0.65;;;23.20;47.20;;;;;;5128786;28;20592;-67
2024/02/22 11:04:02;;;;;;;3.28;0.57;;;23.20;47.10;;;;;;5128695;28;20227;-66
2024/02/22 11:06:37;;;;;;;1.92;0.50;;;23.20;47.10;;;;;;5127836;28;20191;-66
2024/02/22 11:09:04;;;;;;;4.53;0.60;;;23.20;47.00;;;;;;5130376;27;20331;-65
2024/02/22 11:11:32;;;;;;;1.88;0.57;;;23.20;47.10;;;;;;5133740;27;20566;-65
2024/02/22 11:14:00;;;;;;;1.38;0.60;;;23.20;47.00;;;;;;5129179;27;20250;-65
2024/02/22 11:16:34;;;;;;;0.82;0.47;;;23.10;47.00;;;;;;5134417;27;20249;-65
2024/02/22 11:19:08;;;;;;;1.55;0.63;;;23.20;47.00;;;;;;5133559;27;20728;-65
2024/02/22 11:21:36;;;;;;;2.15;0.52;;;23.10;47.00;;;;;;5133566;27;20212;-65
2024/02/22 11:24:07;;;;;;;1.63;0.70;;;23.10;47.20;;;;;;5125744;27;20217;-66
2024/02/22 11:26:34;;;;;;;1.30;0.43;;;23.10;47.20;;;;;;5125770;27;20279;-65
2024/02/22 11:29:01;;;;;;;2.83;0.60;;;23.00;47.10;;;;;;5129931;27;20208;-66
2024/02/22 11:31:28;;;;;;;1.42;0.70;;;23.00;47.20;;;;;;5126196;27;20212;-65
2024/02/22 11:33:56;;;;;;;2.08;0.50;;;23.00;47.20;;;;;;5126768;27;20239;-65
2024/02/22 11:36:25;;;;;;;2.70;0.60;;;23.00;47.20;;;;;;5130572;27;20211;-65
2024/02/22 11:38:58;;;;;;;2.38;0.80;;;23.00;47.20;;;;;;5129213;27;20224;-65
2024/02/22 11:41:26;;;;;;;1.30;0.60;;;23.00;47.20;;;;;;5130051;27;20196;-65
2024/02/22 11:44:02;;;;;;;2.42;0.70;;;22.90;47.10;;;;;;5129593;27;20709;-65
2024/02/22 11:46:29;;;;;;;0.50;0.50;;;22.90;47.10;;;;;;5125422;27;20291;-65
2024/02/22 11:48:56;;;;;;;1.02;0.47;;;22.90;47.10;;;;;;5130676;27;20228;-65
2024/02/22 11:51:25;;;;;;;2.28;0.40;;;22.90;47.20;;;;;;5129742;27;20203;-65
2024/02/22 11:53:53;;;;;;;4.03;0.60;;;22.80;47.10;;;;;;5128516;27;20252;-65
2024/02/22 11:56:20;;;;;;;1.15;0.60;;;22.80;47.20;;;;;;5130634;27;20188;-65
2024/02/22 11:58:47;;;;;;;2.55;0.85;;;22.80;47.10;;;;;;5130007;27;20307;-65
2024/02/22 12:01:14;;;;;;;2.50;0.50;;;22.90;47.20;;;;;;5129471;27;20195;-65
2024/02/22 12:03:42;;;;;;;2.97;0.60;;;22.90;47.20;;;;;;5129143;27;20234;-65
2024/02/22 12:06:09;;;;;;;2.15;0.73;;;22.90;47.10;;;;;;5129800;27;20303;-65
2024/02/22 12:08:37;;;;;;;3.42;0.80;;;23.00;47.00;;;;;;5128726;27;20315;-65
2024/02/22 12:11:06;;;;;;;4.70;1.15;;;23.10;47.00;;;;;;5128906;27;20599;-66
2024/02/22 12:13:33;;;;;;;3.72;1.00;;;23.10;46.90;;;;;;5128328;27;20251;-65
2024/02/22 12:16:07;;;;;;;2.42;1.00;;;23.10;46.70;;;;;;5131293;27;20196;-65
2024/02/22 12:18:34;;;;;;;2.95;0.68;;;23.20;46.60;;;;;;5132016;27;20220;-66
2024/02/22 12:21:01;;;;;;;5.43;0.90;;;23.20;46.40;;;;;;5131681;27;20188;-65
2024/02/22 12:23:29;;;;;;;2.22;0.70;;;23.30;46.40;;;;;;5130933;27;20672;-65
2024/02/22 12:26:06;;;;;;;5.40;1.00;;;23.20;46.20;;;;;;5132069;27;20609;-65
2024/02/22 12:28:33;;;;;;;3.83;1.20;;;23.30;46.20;;;;;;5132118;27;20215;-66
2024/02/22 12:31:00;;;;;;;2.70;0.80;;;23.20;46.10;;;;;;5131069;27;20272;-65
2024/02/22 12:33:27;;;;;;;1.98;0.73;;;23.30;46.00;;;;;;5132107;27;20393;-65
2024/02/22 12:35:56;;;;;;;3.72;0.90;;;23.30;46.60;;;;;;5123456;27;20191;-65
2024/02/22 12:38:23;;;;;;;2.45;0.90;;;23.30;45.70;;;;;;5130831;27;20257;-65
2024/02/22 12:40:50;;;;;;;2.75;1.05;;;23.30;45.70;;;;;;5124231;27;20197;-65
2024/02/22 12:43:19;;;;;;;4.47;0.90;;;23.30;45.70;;;;;;5119710;27;20311;-65
2024/02/22 12:45:49;;;;;;;2.88;0.73;;;23.30;45.60;;;;;;5131247;27;20214;-65
2024/02/22 12:48:16;;;;;;;2.45;0.80;;;23.30;45.50;;;;;;5131683;27;20218;-65
2024/02/22 12:50:43;;;;;;;3.35;1.05;;;23.30;45.40;;;;;;5130535;27;20200;-65
2024/02/22 12:53:11;;;;;;;2.58;0.77;;;23.30;45.40;;;;;;5131029;27;20303;-68
2024/02/22 12:55:38;;;;;;;3.58;0.98;;;23.30;45.40;;;;;;5128375;27;20241;-68
2024/02/22 12:58:05;;;;;;;3.22;0.75;;;23.30;45.40;;;;;;5130212;27;20636;-68
2024/02/22 13:00:35;;;;;;;4.53;0.80;;;23.30;45.40;;;;;;5130271;27;20181;-65
2024/02/22 13:03:02;;;;;;;4.45;0.93;;;23.30;45.20;;;;;;5125345;27;20223;-67
2024/02/22 13:05:30;;;;;;;6.10;1.30;;;23.30;45.20;;;;;;5103120;27;20717;-67
2024/02/22 13:07:59;;;;;;;7.40;1.30;;;23.30;45.10;;;;;;5124849;27;20315;-68
2024/02/22 13:10:26;;;;;;;4.30;1.13;;;23.30;45.00;;;;;;5125068;27;20275;-65
2024/02/22 13:12:53;;;;;;;12.05;1.20;;;23.30;44.80;;;;;;5129285;27;20324;-65
2024/02/22 13:15:21;;;;;;;7.00;1.08;;;23.30;45.00;;;;;;5112366;27;20302;-61
2024/02/22 13:17:51;;;;;;;7.97;1.00;;;23.30;45.10;;;;;;5108019;27;20243;-59
2024/02/22 13:20:18;;;;;;;6.45;1.10;;;23.30;45.20;;;;;;5095060;27;20734;-60
2024/02/22 13:22:45;;;;;;;7.55;0.98;;;23.30;45.40;;;;;;5100931;28;20809;-51
2024/02/22 13:25:14;;;;;;;6.20;1.40;;;23.20;45.40;;;;;;5102611;27;20196;-59
2024/02/22 13:27:41;;;;;;;10.52;1.70;;;23.20;45.60;;;;;;5108208;28;20185;-62
2024/02/22 13:30:13;;;;;;;5.82;1.33;;;23.20;45.60;;;;;;5107422;28;20269;-63
2024/02/22 13:32:41;;;;;;;6.10;0.90;;;23.20;45.30;;;;;;5070127;28;20197;-60
2024/02/22 13:35:09;;;;;;;3.00;1.10;;;23.30;45.10;;;;;;5105653;28;20204;-59
2024/02/22 13:37:36;;;;;;;7.57;1.17;;;23.20;44.80;;;;;;5107047;28;20458;-60
2024/02/22 13:40:05;;;;;;;2.78;1.15;;;23.30;44.90;;;;;;5102978;27;20708;-61
2024/02/22 13:42:32;;;;;;;6.07;1.10;;;23.20;44.50;;;;;;5091926;28;20223;-59
2024/02/22 13:44:59;;;;;;;4.15;1.00;;;23.20;44.40;;;;;;5105319;28;20208;-59
2024/02/22 13:47:27;;;;;;;2.50;1.00;;;23.20;44.50;;;;;;5108977;28;20197;-59
2024/02/22 13:49:57;;;;;;;7.25;1.10;;;23.20;44.40;;;;;;5108377;28;20225;-62
2024/02/22 13:52:25;;;;;;;5.18;1.10;;;23.20;44.40;;;;;;5104605;28;20224;-62
2024/02/22 13:54:54;;;;;;;4.03;1.27;;;23.30;44.80;;;;;;5104668;28;20223;-61
2024/02/22 13:57:21;;;;;;;4.15;0.90;;;23.30;44.10;;;;;;5098755;28;20225;-62
2024/02/22 13:59:49;;;;;;;7.00;1.35;;;23.30;44.10;;;;;;5105478;28;20256;-61
2024/02/22 14:02:15;;;;;;;4.22;1.50;;;23.30;44.10;;;;;;5106537;28;20258;-62
2024/02/22 14:04:42;;;;;;;11.38;8.43;;;23.40;44.20;;;;;;5107312;28;20766;-60
2024/02/22 14:07:09;;;;;;;7.93;4.90;;;23.40;44.20;;;;;;5104708;27;20218;-60
2024/02/22 14:09:38;;;;;;;19.15;14.18;;;23.40;44.10;;;;;;5107598;28;20235;-60
2024/02/22 14:12:05;;;;;;;9.82;6.72;;;23.50;44.00;;;;;;5105603;28;20212;-60
2024/02/22 14:14:40;;;;;;;7.68;4.88;;;23.50;43.90;;;;;;5111410;27;20688;-62
2024/02/22 14:17:10;;;;;;;6.75;4.18;;;23.60;43.70;;;;;;5119699;28;20612;-63
2024/02/22 14:19:37;;;;;;;9.23;4.30;;;23.60;43.70;;;;;;5108009;28;20593;-63
2024/02/22 14:22:04;;;;;;;8.85;3.20;;;23.60;43.70;;;;;;5113610;28;20194;-63
2024/02/22 14:24:31;;;;;;;9.52;3.05;;;23.60;43.70;;;;;;5124993;28;20228;-62
2024/02/22 14:27:02;;;;;;;6.15;2.30;;;23.60;43.60;;;;;;5121311;28;20196;-62
2024/02/22 14:29:33;;;;;;;5.70;2.58;;;23.60;43.50;;;;;;5075804;28;20216;-61
2024/02/22 14:32:00;;;;;;;8.68;2.38;;;23.60;43.40;;;;;;5112220;28;20280;-63
2024/02/22 14:34:27;;;;;;;9.63;2.22;;;23.60;43.20;;;;;;5124818;28;20212;-63
2024/02/22 14:36:54;;;;;;;5.85;1.95;;;23.60;43.00;;;;;;5120342;28;20557;-62
2024/02/22 14:39:21;;;;;;;4.38;1.70;;;23.50;42.80;;;;;;5120328;28;20256;-62
2024/02/22 14:41:48;;;;;;;4.72;1.50;;;23.60;42.70;;;;;;5107429;27;20206;-61
2024/02/22 14:44:16;;;;;;;5.07;1.60;;;23.60;42.70;;;;;;5125431;27;20235;-61
2024/02/22 14:46:44;;;;;;;3.33;1.50;;;23.50;43.10;;;;;;5131948;27;20184;-62
2024/02/22 14:49:13;;;;;;;6.47;1.60;;;23.40;42.40;;;;;;5127058;27;20220;-61
2024/02/22 14:51:40;;;;;;;3.65;1.42;;;23.40;42.30;;;;;;5132207;27;20664;-62
2024/02/22 14:54:07;;;;;;;4.18;1.38;;;23.40;42.20;;;;;;5125363;27;20214;-60
2024/02/22 14:56:34;;;;;;;4.85;1.48;;;23.30;41.90;;;;;;5131883;27;20714;-60
2024/02/22 14:59:01;;;;;;;6.47;1.27;;;23.30;41.70;;;;;;5120353;27;20288;-61
2024/02/22 15:01:30;;;;;;;6.78;1.75;;;23.20;41.40;;;;;;5128954;27;20279;-60
2024/02/22 15:03:57;;;;;;;3.97;1.25;;;23.20;41.00;;;;;;5126825;27;20238;-61
2024/02/22 15:06:23;;;;;;;9.38;1.60;;;23.20;40.80;;;;;;5117023;27;20199;-62
2024/02/22 15:08:50;;;;;;;6.40;1.55;;;23.10;40.20;;;;;;5123454;27;20225;-60
2024/02/22 15:11:18;;;;;;;10.10;1.65;;;23.10;39.90;;;;;;5128679;27;20192;-60
2024/02/22 15:13:46;;;;;;;5.97;1.75;;;23.10;39.60;;;;;;5122669;27;20267;-60
2024/02/22 15:16:13;;;;;;;10.02;1.70;;;23.10;39.00;;;;;;5127242;27;20197;-57
2024/02/22 15:18:41;;;;;;;7.22;1.67;;;23.00;38.90;;;;;;5128554;27;20226;-60
2024/02/22 15:21:08;;;;;;;5.45;1.83;;;23.00;38.70;;;;;;5118890;27;20280;-60
2024/02/22 15:23:36;;;;;;;6.68;1.50;;;23.00;38.30;;;;;;5117544;27;20233;-59
2024/02/22 15:26:04;;;;;;;4.03;1.60;;;23.00;38.20;;;;;;5129286;27;20193;-60
2024/02/22 15:28:31;;;;;;;8.07;1.77;;;23.00;38.00;;;;;;5120840;27;20221;-60
2024/02/22 15:30:58;;;;;;;4.72;1.30;;;23.00;37.70;;;;;;5122270;27;20257;-59
2024/02/22 15:33:25;;;;;;;4.97;1.48;;;22.90;37.30;;;;;;5127358;27;20259;-60
2024/02/22 15:35:53;;;;;;;6.00;1.38;;;22.90;37.20;;;;;;5112859;27;20196;-58
2024/02/22 15:38:20;;;;;;;7.13;1.50;;;22.90;36.80;;;;;;5112937;27;20223;-59
2024/02/22 15:40:48;;;;;;;5.22;1.40;;;22.80;36.80;;;;;;5123293;27;20196;-59
2024/02/22 15:43:15;;;;;;;7.82;1.30;;;22.90;36.80;;;;;;5119629;27;20229;-59
2024/02/22 15:45:43;;;;;;;5.95;1.55;;;22.80;36.60;;;;;;5123147;27;20292;-60
2024/02/22 15:48:11;;;;;;;3.35;1.20;;;22.90;36.70;;;;;;5126291;27;20211;-58
2024/02/22 15:50:38;;;;;;;3.47;1.50;;;22.90;36.70;;;;;;5126337;27;20204;-58
2024/02/22 15:53:06;;;;;;;14.25;1.65;;;22.90;36.70;;;;;;5121691;27;20208;-59
2024/02/22 15:55:34;;;;;;;7.30;1.35;;;22.90;36.70;;;;;;5117632;27;20847;-56
2024/02/22 15:58:02;;;;;;;5.72;1.48;;;22.90;36.80;;;;;;5121089;27;20208;-57
2024/02/22 16:00:29;;;;;;;5.07;1.40;;;22.90;36.90;;;;;;5128879;27;20191;-58
2024/02/22 16:02:58;;;;;;;9.90;1.70;;;22.90;37.10;;;;;;5127841;27;20185;-59
2024/02/22 16:05:25;;;;;;;5.60;1.50;;;22.90;37.00;;;;;;5129834;27;20539;-59
2024/02/22 16:07:52;;;;;;;5.47;1.40;;;23.00;37.20;;;;;;5129970;27;20214;-59
2024/02/22 16:10:20;;;;;;;3.53;1.20;;;23.00;37.20;;;;;;5122828;27;20219;-60
2024/02/22 16:12:47;;;;;;;4.53;1.40;;;23.00;37.30;;;;;;5130097;27;20192;-58
2024/02/22 16:15:14;;;;;;;4.97;1.48;;;23.00;37.30;;;;;;5130216;27;20739;-59
2024/02/22 16:17:41;;;;;;;4.53;1.70;;;23.00;37.40;;;;;;5122831;27;20256;-57
2024/02/22 16:20:10;;;;;;;6.15;1.58;;;23.00;37.40;;;;;;5117712;27;20217;-61
2024/02/22 16:22:38;;;;;;;4.30;1.60;;;23.00;37.50;;;;;;5119398;27;20319;-60
2024/02/22 16:25:06;;;;;;;3.42;1.10;;;23.10;38.30;;;;;;5129406;27;20280;-59
2024/02/22 16:27:35;;;;;;;4.80;1.42;;;23.10;37.40;;;;;;5130103;27;20268;-58
2024/02/22 16:30:04;;;;;;;5.65;1.50;;;23.10;37.30;;;;;;5130340;27;20217;-58
2024/02/22 16:32:31;;;;;;;8.32;1.73;;;23.10;37.40;;;;;;5123483;27;20213;-55
2024/02/22 16:34:58;;;;;;;5.15;1.33;;;23.00;37.30;;;;;;5100613;27;20232;-62
2024/02/22 16:37:26;;;;;;;6.50;1.60;;;23.00;37.10;;;;;;5124019;27;20198;-60
2024/02/22 16:39:53;;;;;;;5.53;1.30;;;23.00;37.20;;;;;;5124847;27;20220;-57
2024/02/22 16:42:23;;;;;;;3.58;1.08;;;23.00;37.40;;;;;;5125305;27;20267;-58
2024/02/22 16:44:51;;;;;;;3.80;1.10;;;23.00;37.40;;;;;;5121323;27;20228;-59
2024/02/22 16:47:20;;;;;;;5.68;1.25;;;23.00;37.50;;;;;;5129764;27;20181;-60
2024/02/22 16:49:48;;;;;;;2.47;0.95;;;22.90;37.40;;;;;;5115644;27;20299;-60
2024/02/22 16:52:15;;;;;;;3.95;1.20;;;22.90;37.40;;;;;;5112867;27;20180;-59
2024/02/22 16:54:42;;;;;;;3.97;1.20;;;22.90;37.50;;;;;;5119143;27;20261;-60
2024/02/22 16:57:09;;;;;;;4.45;1.20;;;22.90;37.50;;;;;;5127443;27;20279;-60
2024/02/22 16:59:36;;;;;;;4.35;1.40;;;22.90;37.60;;;;;;5127773;27;20208;-59
2024/02/22 17:02:05;;;;;;;2.88;0.80;;;22.90;37.60;;;;;;5130826;27;20275;-59
2024/02/22 17:04:31;;;;;;;3.75;1.35;;;22.90;37.50;;;;;;5126455;27;20310;-59
2024/02/22 17:06:59;;;;;;;3.45;1.00;;;22.90;37.60;;;;;;5130894;27;20195;-59
2024/02/22 17:09:26;;;;;;;3.42;1.20;;;22.80;37.50;;;;;;5111469;27;20212;-61
2024/02/22 17:11:53;;;;;;;3.58;1.05;;;22.80;37.50;;;;;;5131108;27;20267;-61
2024/02/22 17:14:22;;;;;;;3.20;1.02;;;22.80;37.50;;;;;;5129908;27;20220;-60
2024/02/22 17:16:49;;;;;;;4.50;1.25;;;22.80;37.50;;;;;;5130964;27;20200;-60
2024/02/22 17:19:18;;;;;;;4.15;0.77;;;22.80;37.40;;;;;;5122734;27;20216;-61
2024/02/22 17:21:48;;;;;;;2.60;1.00;;;22.70;37.30;;;;;;5109614;28;20191;-63
2024/02/22 17:24:15;;;;;;;3.78;0.82;;;22.70;37.30;;;;;;5127324;27;20227;-62
2024/02/22 17:26:42;;;;;;;2.67;1.02;;;22.70;37.40;;;;;;5122850;27;20276;-61
2024/02/22 17:29:10;;;;;;;3.20;1.00;;;22.70;37.30;;;;;;5117322;27;20590;-61
2024/02/22 17:31:37;;;;;;;2.75;1.00;;;22.70;37.40;;;;;;5130836;27;20602;-61
2024/02/22 17:34:04;;;;;;;3.15;1.23;;;22.70;37.40;;;;;;5128199;27;20697;-61
2024/02/22 17:36:32;;;;;;;5.03;1.10;;;22.70;37.40;;;;;;5127576;27;20249;-61
2024/02/22 17:38:59;;;;;;;4.10;1.13;;;22.70;37.20;;;;;;5129472;27;20307;-61
2024/02/22 17:41:26;;;;;;;3.03;1.10;;;22.60;37.20;;;;;;5130305;27;20249;-60
2024/02/22 17:43:55;;;;;;;4.07;1.08;;;22.60;37.30;;;;;;5129699;27;20223;-62
2024/02/22 17:46:23;;;;;;;3.20;1.17;;;22.60;37.30;;;;;;5121157;27;20195;-60
2024/02/22 17:48:50;;;;;;;3.33;1.10;;;22.60;37.20;;;;;;5117436;27;20228;-61
2024/02/22 17:51:18;;;;;;;4.15;0.98;;;22.60;37.20;;;;;;5117724;27;20649;-61
2024/02/22 17:53:47;;;;;;;3.15;1.05;;;22.60;37.80;;;;;;5123872;27;20280;-60
2024/02/22 17:56:14;;;;;;;4.13;1.20;;;22.60;37.10;;;;;;5120533;28;20188;-61
2024/02/22 17:58:43;;;;;;;4.50;1.20;;;22.60;37.00;;;;;;5127822;28;20304;-62
2024/02/22 18:01:11;;;;;;;7.45;1.55;;;22.60;37.10;;;;;;5110927;28;20192;-61
2024/02/22 18:03:39;;;;;;;5.40;1.33;;;22.60;36.90;;;;;;5113341;28;20197;-60
2024/02/22 18:06:06;;;;;;;7.25;1.30;;;22.50;36.80;;;;;;5101146;28;20201;-61
2024/02/22 18:08:34;;;;;;;8.25;1.85;;;22.50;36.70;;;;;;5128722;28;20268;-61
2024/02/22 18:11:03;;;;;;;7.10;1.35;;;22.50;36.60;;;;;;5129253;28;20181;-60
2024/02/22 18:13:30;;;;;;;4.68;1.55;;;22.50;36.50;;;;;;5120937;28;20220;-61
2024/02/22 18:15:57;;;;;;;4.43;1.20;;;22.50;36.50;;;;;;5129110;28;20220;-60
2024/02/22 18:18:24;;;;;;;5.10;1.58;;;22.50;36.40;;;;;;5129809;27;20684;-61
2024/02/22 18:20:52;;;;;;;5.75;1.30;;;22.40;36.30;;;;;;5132067;27;20223;-61
2024/02/22 18:23:20;;;;;;;5.43;1.27;;;22.40;36.20;;;;;;5121624;27;20233;-61
2024/02/22 18:25:47;;;;;;;5.88;1.35;;;22.50;36.30;;;;;;5121430;27;20718;-61
2024/02/22 18:28:15;;;;;;;5.45;1.58;;;22.50;36.20;;;;;;5078152;28;20288;-61
2024/02/22 18:30:43;;;;;;;4.97;1.20;;;22.50;36.20;;;;;;5133394;27;20306;-61
2024/02/22 18:33:11;;;;;;;5.65;1.23;;;22.50;36.20;;;;;;5110921;27;20183;-61
2024/02/22 18:35:38;;;;;;;4.57;1.10;;;22.50;36.20;;;;;;5134491;27;20660;-60
2024/02/22 18:38:06;;;;;;;6.28;1.17;;;22.50;36.20;;;;;;5128567;27;20710;-60
2024/02/22 18:40:33;;;;;;;5.05;1.13;;;22.50;36.10;;;;;;5116011;27;20624;-61
2024/02/22 18:43:00;;;;;;;3.20;1.30;;;22.50;36.10;;;;;;5135135;27;20197;-61
2024/02/22 18:45:28;;;;;;;3.05;1.13;;;22.50;36.10;;;;;;5134380;27;20255;-61
2024/02/22 18:47:56;;;;;;;5.28;1.30;;;22.50;36.10;;;;;;5131800;27;20185;-61
2024/02/22 18:50:23;;;;;;;3.58;1.20;;;22.50;36.10;;;;;;5129289;27;20717;-60
2024/02/22 18:52:50;;;;;;;3.97;1.38;;;22.50;36.00;;;;;;5134582;27;20271;-61
2024/02/22 18:55:17;;;;;;;5.28;1.67;;;22.40;35.90;;;;;;5129376;27;20261;-60
2024/02/22 18:57:44;;;;;;;3.55;1.20;;;22.40;35.90;;;;;;5136130;27;20281;-61
2024/02/22 19:00:12;;;;;;;4.95;1.17;;;22.40;35.90;;;;;;5135865;27;20244;-61
2024/02/22 19:02:40;;;;;;;7.03;0.93;;;22.40;35.90;;;;;;5135070;27;20276;-61
2024/02/22 19:05:09;;;;;;;2.83;1.30;;;22.30;35.80;;;;;;5135349;27;20232;-61
2024/02/22 19:07:37;;;;;;;3.88;1.30;;;22.30;35.80;;;;;;5136501;27;20188;-61
2024/02/22 19:10:07;;;;;;;5.18;1.52;;;22.30;35.80;;;;;;5135950;27;20827;-61
2024/02/22 19:12:34;;;;;;;4.47;1.13;;;22.30;35.80;;;;;;5136253;27;20679;-61
2024/02/22 19:15:01;;;;;;;7.10;1.42;;;22.20;35.80;;;;;;5136280;27;20242;-61
2024/02/22 19:17:28;;;;;;;2.58;1.10;;;22.20;35.80;;;;;;5136121;27;20283;-61
2024/02/22 19:19:57;;;;;;;4.38;1.08;;;22.20;35.80;;;;;;5136156;27;20220;-61
2024/02/22 19:22:24;;;;;;;3.78;1.20;;;22.20;35.80;;;;;;5136149;27;20276;-60
2024/02/22 19:24:51;;;;;;;3.13;1.05;;;22.10;35.80;;;;;;5135904;27;20232;-61
2024/02/22 19:27:18;;;;;;;4.30;1.45;;;22.10;35.70;;;;;;5136144;27;20188;-61
2024/02/22 19:29:45;;;;;;;5.15;1.40;;;22.10;35.70;;;;;;5134806;27;20239;-60
2024/02/22 19:32:15;;;;;;;4.38;1.05;;;22.10;35.70;;;;;;5135883;27;20229;-61
2024/02/22 19:34:42;;;;;;;4.68;1.10;;;22.10;35.70;;;;;;5117643;27;20212;-61
2024/02/22 19:37:11;;;;;;;4.90;1.40;;;22.10;35.70;;;;;;5135631;27;20216;-60
2024/02/22 19:39:38;;;;;;;5.45;1.33;;;22.10;35.60;;;;;;5135649;27;20299;-61
2024/02/22 19:42:07;;;;;;;3.60;1.42;;;22.10;35.50;;;;;;5135790;27;20185;-61
2024/02/22 19:44:34;;;;;;;3.20;1.60;;;22.20;35.60;;;;;;5135684;27;20266;-61
2024/02/22 19:47:01;;;;;;;4.45;1.30;;;22.20;35.50;;;;;;5135613;27;20567;-61
2024/02/22 19:49:32;;;;;;;2.88;1.20;;;22.20;35.50;;;;;;5135731;27;20295;-61
2024/02/22 19:51:59;;;;;;;5.28;1.40;;;22.20;35.50;;;;;;5135759;27;20189;-61
2024/02/22 19:54:28;;;;;;;3.83;1.30;;;22.10;36.00;;;;;;5135353;27;20299;-61
2024/02/22 19:56:56;;;;;;;3.15;1.30;;;22.10;35.30;;;;;;5135240;27;20654;-61
2024/02/22 19:59:23;;;;;;;3.10;1.20;;;22.10;35.40;;;;;;5135510;27;20220;-61
2024/02/22 20:01:50;;;;;;;5.68;1.45;;;22.20;35.50;;;;;;5135333;27;20187;-61
2024/02/22 20:04:17;;;;;;;7.07;1.50;;;22.10;35.40;;;;;;5135168;27;20216;-60
2024/02/22 20:06:44;;;;;;;4.72;1.38;;;22.10;35.30;;;;;;5135313;27;20609;-60
2024/02/22 20:09:11;;;;;;;5.25;1.63;;;22.10;35.40;;;;;;5135080;27;20227;-61
2024/02/22 20:11:40;;;;;;;2.42;1.20;;;22.10;35.30;;;;;;5135227;27;20200;-60
2024/02/22 20:14:07;;;;;;;4.32;1.40;;;22.10;35.30;;;;;;5134905;27;20319;-60
2024/02/22 20:16:34;;;;;;;4.68;1.58;;;22.10;35.30;;;;;;5135089;27;20291;-61
2024/02/22 20:19:01;;;;;;;4.43;1.50;;;22.10;35.30;;;;;;5135100;27;20184;-61
2024/02/22 20:21:28;;;;;;;4.18;1.30;;;22.10;35.40;;;;;;5134688;27;21016;-61
2024/02/22 20:23:55;;;;;;;5.28;1.48;;;22.10;35.40;;;;;;5134376;27;20563;-60
2024/02/22 20:26:23;;;;;;;7.63;1.60;;;22.10;35.40;;;;;;5135111;27;20309;-61
2024/02/22 20:28:52;;;;;;;3.90;1.60;;;22.10;35.40;;;;;;5135052;27;20234;-61
2024/02/22 20:31:18;;;;;;;6.90;1.85;;;22.00;35.30;;;;;;5134821;27;20247;-60
2024/02/22 20:33:45;;;;;;;4.72;1.42;;;22.00;35.40;;;;;;5135042;27;20257;-61
2024/02/22 20:36:12;;;;;;;4.47;1.40;;;22.00;35.30;;;;;;5134630;27;20219;-60
2024/02/22 20:38:42;;;;;;;3.78;1.33;;;22.00;35.40;;;;;;5134517;27;20180;-60
2024/02/22 20:41:15;;;;;;;5.97;1.40;;;22.00;35.30;;;;;;5133745;27;20220;-61
2024/02/22 20:43:42;;;;;;;4.82;1.60;;;22.00;35.40;;;;;;5134620;27;20191;-61
2024/02/22 20:46:10;;;;;;;5.63;1.65;;;22.00;35.30;;;;;;5134157;27;20715;-61
2024/02/22 20:48:39;;;;;;;5.40;1.48;;;22.00;35.20;;;;;;5134514;27;20276;-61
2024/02/22 20:51:06;;;;;;;3.30;1.10;;;22.00;35.30;;;;;;5134397;27;20219;-60
2024/02/22 20:53:35;;;;;;;4.85;1.60;;;22.00;35.20;;;;;;5134173;27;20585;-61
2024/02/22 20:56:02;;;;;;;5.05;1.40;;;22.00;35.20;;;;;;5134228;27;20562;-60
2024/02/22 20:58:30;;;;;;;4.82;1.40;;;22.00;35.20;;;;;;5134052;27;20181;-60
2024/02/22 21:00:58;;;;;;;5.55;1.67;;;22.10;35.20;;;;;;5134209;27;20299;-61